sensor_id;sensor_type;location;lat;lon;timestamp;temperature;humidity
46932;DHT22;32670;51.464;11.964;2024-02-21T00:01:56;22.60;50.80
46932;DHT22;32670;51.464;11.964;2024-02-21T00:04:21;22.60;50.80
46932;DHT22;32670;51.464;11.964;2024-02-21T00:06:47;22.70;50.90
46932;DHT22;32670;51.464;11.964;2024-02-21T00:09:12;22.70;50.80
46932;DHT22;32670;51.464;11.964;2024-02-21T00:11:37;22.70;50.90
46932;DHT22;32670;51.464;11.964;2024-02-21T00:14:03;22.70;50.90
46932;DHT22;32670;51.464;11.964;2024-02-21T00:16:28;22.70;50.90
46932;DHT22;32670;51.464;11.964;2024-02-21T00:18:54;22.70;50.90
46932;DHT22;32670;51.464;11.964;2024-02-21T00:21:19;22.70;51.10
46932;DHT22;32670;51.464;11.964;2024-02-21T00:23:45;22.70;51.00
46932;DHT22;32670;51.464;11.964;2024-02-21T00:26:15;22.70;50.90
46932;DHT22;32670;51.464;11.964;2024-02-21T00:28:41;22.70;51.00
46932;DHT22;32670;51.464;11.964;2024-02-21T00:31:07;22.70;51.00
46932;DHT22;32670;51.464;11.964;2024-02-21T00:33:32;22.70;51.10
46932;DHT22;32670;51.464;11.964;2024-02-21T00:35:58;22.70;51.20
46932;DHT22;32670;51.464;11.964;2024-02-21T00:38:23;22.70;51.10
46932;DHT22;32670;51.464;11.964;2024-02-21T00:40:49;22.70;51.10
46932;DHT22;32670;51.464;11.964;2024-02-21T00:43:14;22.70;51.20
46932;DHT22;32670;51.464;11.964;2024-02-21T00:45:39;22.70;51.10
46932;DHT22;32670;51.464;11.964;2024-02-21T00:48:05;22.70;51.20
46932;DHT22;32670;51.464;11.964;2024-02-21T00:50:31;22.70;51.30
46932;DHT22;32670;51.464;11.964;2024-02-21T00:52:56;22.70;51.30
46932;DHT22;32670;51.464;11.964;2024-02-21T00:55:22;22.70;51.30
46932;DHT22;32670;51.464;11.964;2024-02-21T00:57:47;22.70;51.50
46932;DHT22;32670;51.464;11.964;2024-02-21T01:00:13;22.60;51.50
46932;DHT22;32670;51.464;11.964;2024-02-21T01:02:39;22.70;51.60
46932;DHT22;32670;51.464;11.964;2024-02-21T01:05:04;22.70;51.70
46932;DHT22;32670;51.464;11.964;2024-02-21T01:07:30;22.70;51.90
46932;DHT22;32670;51.464;11.964;2024-02-21T01:09:55;22.70;51.80
46932;DHT22;32670;51.464;11.964;2024-02-21T01:12:21;22.70;51.80
46932;DHT22;32670;51.464;11.964;2024-02-21T01:14:46;22.70;51.90
46932;DHT22;32670;51.464;11.964;2024-02-21T01:17:12;22.70;51.80
46932;DHT22;32670;51.464;11.964;2024-02-21T01:19:38;22.70;51.80
46932;DHT22;32670;51.464;11.964;2024-02-21T01:22:04;22.70;51.90
46932;DHT22;32670;51.464;11.964;2024-02-21T01:24:29;22.70;52.00
46932;DHT22;32670;51.464;11.964;2024-02-21T01:26:55;22.70;52.00
46932;DHT22;32670;51.464;11.964;2024-02-21T01:29:20;22.70;52.10
46932;DHT22;32670;51.464;11.964;2024-02-21T01:31:46;22.70;52.00
46932;DHT22;32670;51.464;11.964;2024-02-21T01:34:12;22.70;52.10
46932;DHT22;32670;51.464;11.964;2024-02-21T01:36:38;22.60;52.10
46932;DHT22;32670;51.464;11.964;2024-02-21T01:39:03;22.70;52.00
46932;DHT22;32670;51.464;11.964;2024-02-21T01:41:31;22.70;52.00
46932;DHT22;32670;51.464;11.964;2024-02-21T01:43:57;22.70;52.10
46932;DHT22;32670;51.464;11.964;2024-02-21T01:46:23;22.70;52.00
46932;DHT22;32670;51.464;11.964;2024-02-21T01:48:53;22.70;52.00
46932;DHT22;32670;51.464;11.964;2024-02-21T01:51:19;22.70;52.10
46932;DHT22;32670;51.464;11.964;2024-02-21T01:53:45;22.70;52.60
46932;DHT22;32670;51.464;11.964;2024-02-21T01:56:12;22.70;52.20
46932;DHT22;32670;51.464;11.964;2024-02-21T01:58:39;22.70;51.70
46932;DHT22;32670;51.464;11.964;2024-02-21T02:01:06;22.70;52.00
46932;DHT22;32670;51.464;11.964;2024-02-21T02:03:31;22.70;52.00
46932;DHT22;32670;51.464;11.964;2024-02-21T02:05:57;22.80;52.00
46932;DHT22;32670;51.464;11.964;2024-02-21T02:08:23;22.80;52.00
46932;DHT22;32670;51.464;11.964;2024-02-21T02:10:48;22.80;52.20
46932;DHT22;32670;51.464;11.964;2024-02-21T02:13:14;22.80;52.10
46932;DHT22;32670;51.464;11.964;2024-02-21T02:18:08;22.80;52.20
46932;DHT22;32670;51.464;11.964;2024-02-21T02:20:35;22.80;52.20
46932;DHT22;32670;51.464;11.964;2024-02-21T02:25:40;22.80;52.20
46932;DHT22;32670;51.464;11.964;2024-02-21T02:28:06;22.80;52.40
46932;DHT22;32670;51.464;11.964;2024-02-21T02:30:33;22.80;52.30
46932;DHT22;32670;51.464;11.964;2024-02-21T02:33:00;22.80;52.40
46932;DHT22;32670;51.464;11.964;2024-02-21T02:35:25;22.80;52.50
46932;DHT22;32670;51.464;11.964;2024-02-21T02:37:51;22.80;52.40
46932;DHT22;32670;51.464;11.964;2024-02-21T02:40:19;22.80;52.60
46932;DHT22;32670;51.464;11.964;2024-02-21T02:42:45;22.80;52.50
46932;DHT22;32670;51.464;11.964;2024-02-21T02:45:11;22.80;52.50
46932;DHT22;32670;51.464;11.964;2024-02-21T02:47:36;22.70;52.60
46932;DHT22;32670;51.464;11.964;2024-02-21T02:50:02;22.80;52.50
46932;DHT22;32670;51.464;11.964;2024-02-21T02:52:27;22.80;52.50
46932;DHT22;32670;51.464;11.964;2024-02-21T02:54:53;22.80;52.70
46932;DHT22;32670;51.464;11.964;2024-02-21T02:57:20;22.70;52.60
46932;DHT22;32670;51.464;11.964;2024-02-21T02:59:50;22.80;52.70
46932;DHT22;32670;51.464;11.964;2024-02-21T03:02:15;22.70;52.80
46932;DHT22;32670;51.464;11.964;2024-02-21T03:04:41;22.80;52.80
46932;DHT22;32670;51.464;11.964;2024-02-21T03:07:06;22.80;52.80
46932;DHT22;32670;51.464;11.964;2024-02-21T03:09:32;22.80;52.80
46932;DHT22;32670;51.464;11.964;2024-02-21T03:11:57;22.80;52.90
46932;DHT22;32670;51.464;11.964;2024-02-21T03:14:28;22.80;53.70
46932;DHT22;32670;51.464;11.964;2024-02-21T03:16:54;22.80;53.10
46932;DHT22;32670;51.464;11.964;2024-02-21T03:19:20;22.80;53.20
46932;DHT22;32670;51.464;11.964;2024-02-21T03:21:45;22.80;53.20
46932;DHT22;32670;51.464;11.964;2024-02-21T03:24:10;22.80;53.20
46932;DHT22;32670;51.464;11.964;2024-02-21T03:26:36;22.80;53.10
46932;DHT22;32670;51.464;11.964;2024-02-21T03:29:01;22.80;53.10
46932;DHT22;32670;51.464;11.964;2024-02-21T03:31:27;22.80;53.20
46932;DHT22;32670;51.464;11.964;2024-02-21T03:33:53;22.80;53.20
46932;DHT22;32670;51.464;11.964;2024-02-21T03:36:18;22.80;53.20
46932;DHT22;32670;51.464;11.964;2024-02-21T03:38:44;22.80;53.20
46932;DHT22;32670;51.464;11.964;2024-02-21T03:41:10;22.80;53.80
46932;DHT22;32670;51.464;11.964;2024-02-21T03:43:37;22.80;53.20
46932;DHT22;32670;51.464;11.964;2024-02-21T03:46:03;22.80;53.50
46932;DHT22;32670;51.464;11.964;2024-02-21T03:48:28;22.80;53.50
46932;DHT22;32670;51.464;11.964;2024-02-21T03:50:54;22.80;53.50
46932;DHT22;32670;51.464;11.964;2024-02-21T03:53:19;22.80;53.60
46932;DHT22;32670;51.464;11.964;2024-02-21T03:55:45;22.80;53.60
46932;DHT22;32670;51.464;11.964;2024-02-21T03:58:10;22.80;53.70
46932;DHT22;32670;51.464;11.964;2024-02-21T04:00:36;22.80;53.70
46932;DHT22;32670;51.464;11.964;2024-02-21T04:03:01;22.80;53.70
46932;DHT22;32670;51.464;11.964;2024-02-21T04:05:28;22.80;53.80
46932;DHT22;32670;51.464;11.964;2024-02-21T04:07:53;22.80;53.80
46932;DHT22;32670;51.464;11.964;2024-02-21T04:10:19;22.80;53.80
46932;DHT22;32670;51.464;11.964;2024-02-21T04:12:44;22.80;53.80
46932;DHT22;32670;51.464;11.964;2024-02-21T04:15:10;22.80;53.70
46932;DHT22;32670;51.464;11.964;2024-02-21T04:17:36;22.80;53.80
46932;DHT22;32670;51.464;11.964;2024-02-21T04:20:04;22.90;53.80
46932;DHT22;32670;51.464;11.964;2024-02-21T04:22:31;22.80;54.30
46932;DHT22;32670;51.464;11.964;2024-02-21T04:24:59;22.90;53.80
46932;DHT22;32670;51.464;11.964;2024-02-21T04:27:24;22.80;53.80
46932;DHT22;32670;51.464;11.964;2024-02-21T04:29:50;22.80;53.80
46932;DHT22;32670;51.464;11.964;2024-02-21T04:32:15;22.90;54.00
46932;DHT22;32670;51.464;11.964;2024-02-21T04:34:41;22.90;54.00
46932;DHT22;32670;51.464;11.964;2024-02-21T04:37:06;22.90;53.90
46932;DHT22;32670;51.464;11.964;2024-02-21T04:39:32;22.90;53.90
46932;DHT22;32670;51.464;11.964;2024-02-21T04:41:58;22.90;53.90
46932;DHT22;32670;51.464;11.964;2024-02-21T04:44:23;22.90;54.00
46932;DHT22;32670;51.464;11.964;2024-02-21T04:46:49;22.90;53.90
46932;DHT22;32670;51.464;11.964;2024-02-21T04:49:14;22.90;54.00
46932;DHT22;32670;51.464;11.964;2024-02-21T04:51:40;22.90;54.10
46932;DHT22;32670;51.464;11.964;2024-02-21T04:54:06;22.90;53.90
46932;DHT22;32670;51.464;11.964;2024-02-21T04:56:31;23.00;54.00
46932;DHT22;32670;51.464;11.964;2024-02-21T04:58:57;22.90;54.00
46932;DHT22;32670;51.464;11.964;2024-02-21T05:01:22;22.90;54.00
46932;DHT22;32670;51.464;11.964;2024-02-21T05:03:48;22.90;54.00
46932;DHT22;32670;51.464;11.964;2024-02-21T05:06:13;23.00;54.10
46932;DHT22;32670;51.464;11.964;2024-02-21T05:08:40;23.00;54.00
46932;DHT22;32670;51.464;11.964;2024-02-21T05:11:05;23.00;54.00
46932;DHT22;32670;51.464;11.964;2024-02-21T05:13:31;23.00;54.10
46932;DHT22;32670;51.464;11.964;2024-02-21T05:15:56;23.00;54.10
46932;DHT22;32670;51.464;11.964;2024-02-21T05:18:22;23.00;54.10
46932;DHT22;32670;51.464;11.964;2024-02-21T05:20:47;23.00;54.10
46932;DHT22;32670;51.464;11.964;2024-02-21T05:23:13;23.00;54.20
46932;DHT22;32670;51.464;11.964;2024-02-21T05:25:38;23.00;54.30
46932;DHT22;32670;51.464;11.964;2024-02-21T05:28:04;23.00;54.40
46932;DHT22;32670;51.464;11.964;2024-02-21T05:30:31;23.00;54.50
46932;DHT22;32670;51.464;11.964;2024-02-21T05:32:57;23.00;53.90
46932;DHT22;32670;51.464;11.964;2024-02-21T05:35:29;23.00;53.20
46932;DHT22;32670;51.464;11.964;2024-02-21T05:37:54;23.00;53.60
46932;DHT22;32670;51.464;11.964;2024-02-21T05:40:20;23.00;53.80
46932;DHT22;32670;51.464;11.964;2024-02-21T05:42:45;23.00;53.90
46932;DHT22;32670;51.464;11.964;2024-02-21T05:45:11;23.00;53.90
46932;DHT22;32670;51.464;11.964;2024-02-21T05:47:36;23.00;53.90
46932;DHT22;32670;51.464;11.964;2024-02-21T05:50:01;23.00;54.10
46932;DHT22;32670;51.464;11.964;2024-02-21T05:52:27;23.00;54.00
46932;DHT22;32670;51.464;11.964;2024-02-21T05:54:53;23.00;54.30
46932;DHT22;32670;51.464;11.964;2024-02-21T05:57:18;23.00;54.20
46932;DHT22;32670;51.464;11.964;2024-02-21T05:59:44;23.00;54.30
46932;DHT22;32670;51.464;11.964;2024-02-21T06:02:09;23.00;54.30
46932;DHT22;32670;51.464;11.964;2024-02-21T06:04:35;23.00;54.20
46932;DHT22;32670;51.464;11.964;2024-02-21T06:07:01;22.90;53.40
46932;DHT22;32670;51.464;11.964;2024-02-21T06:09:27;22.90;53.90
46932;DHT22;32670;51.464;11.964;2024-02-21T06:11:53;23.00;54.20
46932;DHT22;32670;51.464;11.964;2024-02-21T06:14:19;23.00;54.20
46932;DHT22;32670;51.464;11.964;2024-02-21T06:16:44;23.00;54.20
46932;DHT22;32670;51.464;11.964;2024-02-21T06:19:10;23.00;54.20
46932;DHT22;32670;51.464;11.964;2024-02-21T06:21:36;23.00;54.20
46932;DHT22;32670;51.464;11.964;2024-02-21T06:24:02;23.00;54.30
46932;DHT22;32670;51.464;11.964;2024-02-21T06:26:27;23.00;54.20
46932;DHT22;32670;51.464;11.964;2024-02-21T06:28:53;23.00;54.20
46932;DHT22;32670;51.464;11.964;2024-02-21T06:31:18;23.00;54.20
46932;DHT22;32670;51.464;11.964;2024-02-21T06:33:44;23.00;54.20
46932;DHT22;32670;51.464;11.964;2024-02-21T06:36:09;23.00;54.30
46932;DHT22;32670;51.464;11.964;2024-02-21T06:38:35;23.00;54.60
46932;DHT22;32670;51.464;11.964;2024-02-21T06:41:00;23.00;54.30
46932;DHT22;32670;51.464;11.964;2024-02-21T06:43:28;23.00;53.80
46932;DHT22;32670;51.464;11.964;2024-02-21T06:45:53;23.00;54.20
46932;DHT22;32670;51.464;11.964;2024-02-21T06:48:20;23.00;54.10
46932;DHT22;32670;51.464;11.964;2024-02-21T06:50:46;23.00;54.80
46932;DHT22;32670;51.464;11.964;2024-02-21T06:53:11;23.00;54.20
46932;DHT22;32670;51.464;11.964;2024-02-21T06:55:37;23.00;54.20
46932;DHT22;32670;51.464;11.964;2024-02-21T06:58:02;23.00;54.00
46932;DHT22;32670;51.464;11.964;2024-02-21T07:00:29;23.00;54.00
46932;DHT22;32670;51.464;11.964;2024-02-21T07:02:54;23.10;54.50
46932;DHT22;32670;51.464;11.964;2024-02-21T07:05:20;23.10;54.40
46932;DHT22;32670;51.464;11.964;2024-02-21T07:07:46;23.00;54.10
46932;DHT22;32670;51.464;11.964;2024-02-21T07:10:11;23.10;54.00
46932;DHT22;32670;51.464;11.964;2024-02-21T07:12:42;23.00;52.40
46932;DHT22;32670;51.464;11.964;2024-02-21T07:15:08;23.00;50.70
46932;DHT22;32670;51.464;11.964;2024-02-21T07:17:34;22.80;48.60
46932;DHT22;32670;51.464;11.964;2024-02-21T07:20:09;22.80;48.20
46932;DHT22;32670;51.464;11.964;2024-02-21T07:22:35;22.70;46.90
46932;DHT22;32670;51.464;11.964;2024-02-21T07:25:00;22.60;45.60
46932;DHT22;32670;51.464;11.964;2024-02-21T07:27:26;22.60;45.00
46932;DHT22;32670;51.464;11.964;2024-02-21T07:29:54;22.60;44.90
46932;DHT22;32670;51.464;11.964;2024-02-21T07:32:19;22.50;44.40
46932;DHT22;32670;51.464;11.964;2024-02-21T07:34:44;22.50;44.20
46932;DHT22;32670;51.464;11.964;2024-02-21T07:37:10;22.40;43.30
46932;DHT22;32670;51.464;11.964;2024-02-21T07:39:36;22.40;43.50
46932;DHT22;32670;51.464;11.964;2024-02-21T07:42:05;22.40;42.90
46932;DHT22;32670;51.464;11.964;2024-02-21T07:44:31;22.30;42.10
46932;DHT22;32670;51.464;11.964;2024-02-21T07:46:57;22.10;40.50
46932;DHT22;32670;51.464;11.964;2024-02-21T07:49:23;21.90;39.50
46932;DHT22;32670;51.464;11.964;2024-02-21T07:51:48;21.60;39.50
46932;DHT22;32670;51.464;11.964;2024-02-21T07:54:14;21.40;39.60
46932;DHT22;32670;51.464;11.964;2024-02-21T07:56:39;21.20;39.80
46932;DHT22;32670;51.464;11.964;2024-02-21T07:59:05;21.00;39.90
46932;DHT22;32670;51.464;11.964;2024-02-21T08:01:30;20.90;40.60
46932;DHT22;32670;51.464;11.964;2024-02-21T08:03:56;20.90;41.20
46932;DHT22;32670;51.464;11.964;2024-02-21T08:06:21;20.90;40.80
46932;DHT22;32670;51.464;11.964;2024-02-21T08:08:47;20.80;40.70
46932;DHT22;32670;51.464;11.964;2024-02-21T08:11:12;20.70;40.60
46932;DHT22;32670;51.464;11.964;2024-02-21T08:13:38;20.60;40.80
46932;DHT22;32670;51.464;11.964;2024-02-21T08:16:04;20.50;40.90
46932;DHT22;32670;51.464;11.964;2024-02-21T08:18:29;20.50;41.10
46932;DHT22;32670;51.464;11.964;2024-02-21T08:20:55;20.40;41.20
46932;DHT22;32670;51.464;11.964;2024-02-21T08:23:23;20.40;41.40
46932;DHT22;32670;51.464;11.964;2024-02-21T08:25:49;20.30;41.40
46932;DHT22;32670;51.464;11.964;2024-02-21T08:28:15;20.30;41.60
46932;DHT22;32670;51.464;11.964;2024-02-21T08:30:40;20.30;41.50
46932;DHT22;32670;51.464;11.964;2024-02-21T08:33:09;20.20;41.60
46932;DHT22;32670;51.464;11.964;2024-02-21T08:35:35;20.20;41.60
46932;DHT22;32670;51.464;11.964;2024-02-21T08:38:00;20.10;41.60
46932;DHT22;32670;51.464;11.964;2024-02-21T08:40:26;20.10;41.90
46932;DHT22;32670;51.464;11.964;2024-02-21T08:42:51;20.00;41.80
46932;DHT22;32670;51.464;11.964;2024-02-21T08:45:16;20.00;41.80
46932;DHT22;32670;51.464;11.964;2024-02-21T08:47:42;20.00;41.80
46932;DHT22;32670;51.464;11.964;2024-02-21T08:50:08;20.10;42.10
46932;DHT22;32670;51.464;11.964;2024-02-21T08:52:35;20.00;41.90
46932;DHT22;32670;51.464;11.964;2024-02-21T08:55:01;20.00;41.80
46932;DHT22;32670;51.464;11.964;2024-02-21T08:57:27;20.00;41.70
46932;DHT22;32670;51.464;11.964;2024-02-21T08:59:52;19.90;41.70
46932;DHT22;32670;51.464;11.964;2024-02-21T09:02:18;19.90;41.70
46932;DHT22;32670;51.464;11.964;2024-02-21T09:04:43;19.90;41.70
46932;DHT22;32670;51.464;11.964;2024-02-21T09:07:12;19.90;41.60
46932;DHT22;32670;51.464;11.964;2024-02-21T09:09:37;19.80;41.60
46932;DHT22;32670;51.464;11.964;2024-02-21T09:12:06;19.80;41.70
46932;DHT22;32670;51.464;11.964;2024-02-21T09:14:33;19.80;41.70
46932;DHT22;32670;51.464;11.964;2024-02-21T09:16:58;19.80;41.70
46932;DHT22;32670;51.464;11.964;2024-02-21T09:19:24;19.80;41.70
46932;DHT22;32670;51.464;11.964;2024-02-21T09:21:49;19.70;41.60
46932;DHT22;32670;51.464;11.964;2024-02-21T09:24:15;19.70;41.60
46932;DHT22;32670;51.464;11.964;2024-02-21T09:26:40;19.70;42.10
46932;DHT22;32670;51.464;11.964;2024-02-21T09:29:06;19.70;42.00
46932;DHT22;32670;51.464;11.964;2024-02-21T09:31:31;19.70;42.00
46932;DHT22;32670;51.464;11.964;2024-02-21T09:33:57;19.70;41.50
46932;DHT22;32670;51.464;11.964;2024-02-21T09:36:22;19.60;41.50
46932;DHT22;32670;51.464;11.964;2024-02-21T09:38:48;19.70;42.80
46932;DHT22;32670;51.464;11.964;2024-02-21T09:41:18;19.80;42.90
46932;DHT22;32670;51.464;11.964;2024-02-21T09:43:44;20.00;43.10
46932;DHT22;32670;51.464;11.964;2024-02-21T09:46:18;20.10;43.00
46932;DHT22;32670;51.464;11.964;2024-02-21T09:49:21;20.20;43.00
46932;DHT22;32670;51.464;11.964;2024-02-21T09:51:43;20.30;42.90
46932;DHT22;32670;51.464;11.964;2024-02-21T09:54:10;20.40;42.80
46932;DHT22;32670;51.464;11.964;2024-02-21T09:56:35;20.50;42.90
46932;DHT22;32670;51.464;11.964;2024-02-21T09:59:02;20.50;42.50
46932;DHT22;32670;51.464;11.964;2024-02-21T10:01:30;20.60;43.00
46932;DHT22;32670;51.464;11.964;2024-02-21T10:03:57;20.60;43.00
46932;DHT22;32670;51.464;11.964;2024-02-21T10:06:22;20.70;42.90
46932;DHT22;32670;51.464;11.964;2024-02-21T10:08:54;20.70;43.10
46932;DHT22;32670;51.464;11.964;2024-02-21T10:11:23;20.70;43.10
46932;DHT22;32670;51.464;11.964;2024-02-21T10:13:49;20.70;43.20
46932;DHT22;32670;51.464;11.964;2024-02-21T10:16:15;20.80;43.30
46932;DHT22;32670;51.464;11.964;2024-02-21T10:18:41;20.80;43.20
46932;DHT22;32670;51.464;11.964;2024-02-21T10:21:07;20.80;43.20
46932;DHT22;32670;51.464;11.964;2024-02-21T10:23:48;20.80;43.20
46932;DHT22;32670;51.464;11.964;2024-02-21T10:26:19;20.80;43.30
46932;DHT22;32670;51.464;11.964;2024-02-21T10:28:45;20.90;43.50
46932;DHT22;32670;51.464;11.964;2024-02-21T10:31:24;20.80;44.00
46932;DHT22;32670;51.464;11.964;2024-02-21T10:33:57;20.90;43.40
46932;DHT22;32670;51.464;11.964;2024-02-21T10:36:23;20.80;43.30
46932;DHT22;32670;51.464;11.964;2024-02-21T10:38:50;20.90;43.40
46932;DHT22;32670;51.464;11.964;2024-02-21T10:41:19;20.90;43.40
46932;DHT22;32670;51.464;11.964;2024-02-21T10:43:50;20.90;43.40
46932;DHT22;32670;51.464;11.964;2024-02-21T10:46:19;20.90;43.50
46932;DHT22;32670;51.464;11.964;2024-02-21T10:48:46;20.90;43.80
46932;DHT22;32670;51.464;11.964;2024-02-21T10:51:19;21.00;43.90
46932;DHT22;32670;51.464;11.964;2024-02-21T10:54:11;21.00;43.90
46932;DHT22;32670;51.464;11.964;2024-02-21T10:56:39;21.00;43.90
46932;DHT22;32670;51.464;11.964;2024-02-21T10:59:07;21.00;43.90
46932;DHT22;32670;51.464;11.964;2024-02-21T11:01:33;21.00;44.10
46932;DHT22;32670;51.464;11.964;2024-02-21T11:04:07;21.00;44.30
46932;DHT22;32670;51.464;11.964;2024-02-21T11:06:35;21.00;44.10
46932;DHT22;32670;51.464;11.964;2024-02-21T11:09:09;21.10;44.10
46932;DHT22;32670;51.464;11.964;2024-02-21T11:11:35;21.10;43.90
46932;DHT22;32670;51.464;11.964;2024-02-21T11:16:39;21.10;44.10
46932;DHT22;32670;51.464;11.964;2024-02-21T11:19:21;21.10;44.10
46932;DHT22;32670;51.464;11.964;2024-02-21T11:21:47;21.20;44.00
46932;DHT22;32670;51.464;11.964;2024-02-21T11:24:13;21.20;44.10
46932;DHT22;32670;51.464;11.964;2024-02-21T11:26:40;21.20;44.10
46932;DHT22;32670;51.464;11.964;2024-02-21T11:29:08;21.20;44.10
46932;DHT22;32670;51.464;11.964;2024-02-21T11:31:40;21.20;44.10
46932;DHT22;32670;51.464;11.964;2024-02-21T11:34:09;21.20;44.10
46932;DHT22;32670;51.464;11.964;2024-02-21T11:36:34;21.20;44.10
46932;DHT22;32670;51.464;11.964;2024-02-21T11:39:04;21.20;44.10
46932;DHT22;32670;51.464;11.964;2024-02-21T11:41:30;21.30;44.20
46932;DHT22;32670;51.464;11.964;2024-02-21T11:43:55;21.30;44.10
46932;DHT22;32670;51.464;11.964;2024-02-21T11:46:21;21.30;44.10
46932;DHT22;32670;51.464;11.964;2024-02-21T11:48:46;21.30;44.20
46932;DHT22;32670;51.464;11.964;2024-02-21T11:51:24;21.30;44.20
46932;DHT22;32670;51.464;11.964;2024-02-21T11:53:50;21.30;44.10
46932;DHT22;32670;51.464;11.964;2024-02-21T11:56:16;21.30;44.10
46932;DHT22;32670;51.464;11.964;2024-02-21T11:58:41;21.30;44.30
46932;DHT22;32670;51.464;11.964;2024-02-21T12:01:08;21.30;44.30
46932;DHT22;32670;51.464;11.964;2024-02-21T12:03:35;21.30;44.40
46932;DHT22;32670;51.464;11.964;2024-02-21T12:06:01;21.30;44.30
46932;DHT22;32670;51.464;11.964;2024-02-21T12:08:40;21.40;44.30
46932;DHT22;32670;51.464;11.964;2024-02-21T12:11:24;21.40;44.30
46932;DHT22;32670;51.464;11.964;2024-02-21T12:14:02;21.40;44.30
46932;DHT22;32670;51.464;11.964;2024-02-21T12:16:30;21.40;44.30
46932;DHT22;32670;51.464;11.964;2024-02-21T12:18:56;21.40;44.30
46932;DHT22;32670;51.464;11.964;2024-02-21T12:21:33;21.40;44.30
46932;DHT22;32670;51.464;11.964;2024-02-21T12:24:22;21.40;44.30
46932;DHT22;32670;51.464;11.964;2024-02-21T12:26:48;21.40;44.40
46932;DHT22;32670;51.464;11.964;2024-02-21T12:29:13;21.40;44.30
46932;DHT22;32670;51.464;11.964;2024-02-21T12:31:39;21.40;44.30
46932;DHT22;32670;51.464;11.964;2024-02-21T12:34:05;21.40;44.40
46932;DHT22;32670;51.464;11.964;2024-02-21T12:36:31;21.40;44.40
46932;DHT22;32670;51.464;11.964;2024-02-21T12:38:57;21.40;44.40
46932;DHT22;32670;51.464;11.964;2024-02-21T12:41:22;21.40;44.40
46932;DHT22;32670;51.464;11.964;2024-02-21T12:43:50;21.40;44.40
46932;DHT22;32670;51.464;11.964;2024-02-21T12:46:16;21.40;44.40
46932;DHT22;32670;51.464;11.964;2024-02-21T12:48:42;21.40;44.40
46932;DHT22;32670;51.464;11.964;2024-02-21T12:51:07;21.50;44.40
46932;DHT22;32670;51.464;11.964;2024-02-21T12:53:33;21.40;44.40
46932;DHT22;32670;51.464;11.964;2024-02-21T12:55:59;21.50;44.40
46932;DHT22;32670;51.464;11.964;2024-02-21T12:58:24;21.50;44.40
46932;DHT22;32670;51.464;11.964;2024-02-21T13:00:50;21.50;44.40
46932;DHT22;32670;51.464;11.964;2024-02-21T13:03:15;21.50;44.40
46932;DHT22;32670;51.464;11.964;2024-02-21T13:05:41;21.50;44.40
46932;DHT22;32670;51.464;11.964;2024-02-21T13:08:06;21.50;44.40
46932;DHT22;32670;51.464;11.964;2024-02-21T13:10:33;21.50;44.40
46932;DHT22;32670;51.464;11.964;2024-02-21T13:13:00;21.50;44.40
46932;DHT22;32670;51.464;11.964;2024-02-21T13:15:25;21.50;44.50
46932;DHT22;32670;51.464;11.964;2024-02-21T13:17:53;21.50;44.40
46932;DHT22;32670;51.464;11.964;2024-02-21T13:20:19;21.50;44.50
46932;DHT22;32670;51.464;11.964;2024-02-21T13:22:45;21.50;44.40
46932;DHT22;32670;51.464;11.964;2024-02-21T13:25:10;21.50;44.50
46932;DHT22;32670;51.464;11.964;2024-02-21T13:27:36;21.50;44.40
46932;DHT22;32670;51.464;11.964;2024-02-21T13:30:02;21.50;44.40
46932;DHT22;32670;51.464;11.964;2024-02-21T13:32:31;21.50;44.40
46932;DHT22;32670;51.464;11.964;2024-02-21T13:34:57;21.50;44.50
46932;DHT22;32670;51.464;11.964;2024-02-21T13:37:25;21.50;44.40
46932;DHT22;32670;51.464;11.964;2024-02-21T13:39:52;21.60;44.50
46932;DHT22;32670;51.464;11.964;2024-02-21T13:42:17;21.60;44.50
46932;DHT22;32670;51.464;11.964;2024-02-21T13:44:44;21.50;44.40
46932;DHT22;32670;51.464;11.964;2024-02-21T13:47:10;21.60;44.50
46932;DHT22;32670;51.464;11.964;2024-02-21T13:49:36;21.60;44.50
46932;DHT22;32670;51.464;11.964;2024-02-21T13:52:02;21.60;44.60
46932;DHT22;32670;51.464;11.964;2024-02-21T13:54:27;21.60;44.80
46932;DHT22;32670;51.464;11.964;2024-02-21T13:56:53;21.60;44.70
46932;DHT22;32670;51.464;11.964;2024-02-21T13:59:18;21.60;44.60
46932;DHT22;32670;51.464;11.964;2024-02-21T14:01:44;21.60;44.60
46932;DHT22;32670;51.464;11.964;2024-02-21T14:04:09;21.60;44.60
46932;DHT22;32670;51.464;11.964;2024-02-21T14:06:35;21.60;44.60
46932;DHT22;32670;51.464;11.964;2024-02-21T14:09:00;21.60;44.60
46932;DHT22;32670;51.464;11.964;2024-02-21T14:11:26;21.60;44.60
46932;DHT22;32670;51.464;11.964;2024-02-21T14:13:52;21.60;44.50
46932;DHT22;32670;51.464;11.964;2024-02-21T14:16:18;21.60;44.60
46932;DHT22;32670;51.464;11.964;2024-02-21T14:18:43;21.60;44.60
46932;DHT22;32670;51.464;11.964;2024-02-21T14:21:09;21.60;44.60
46932;DHT22;32670;51.464;11.964;2024-02-21T14:23:38;21.60;44.50
46932;DHT22;32670;51.464;11.964;2024-02-21T14:26:04;21.60;44.50
46932;DHT22;32670;51.464;11.964;2024-02-21T14:28:31;21.60;45.10
46932;DHT22;32670;51.464;11.964;2024-02-21T14:30:58;21.70;44.50
46932;DHT22;32670;51.464;11.964;2024-02-21T14:33:26;21.60;44.50
46932;DHT22;32670;51.464;11.964;2024-02-21T14:35:52;21.60;44.50
46932;DHT22;32670;51.464;11.964;2024-02-21T14:38:18;21.60;44.50
46932;DHT22;32670;51.464;11.964;2024-02-21T14:40:44;21.70;44.50
46932;DHT22;32670;51.464;11.964;2024-02-21T14:43:10;21.60;45.00
46932;DHT22;32670;51.464;11.964;2024-02-21T14:45:35;21.60;44.40
46932;DHT22;32670;51.464;11.964;2024-02-21T14:48:00;21.60;44.50
46932;DHT22;32670;51.464;11.964;2024-02-21T14:50:26;21.70;44.50
46932;DHT22;32670;51.464;11.964;2024-02-21T14:52:52;21.60;44.40
46932;DHT22;32670;51.464;11.964;2024-02-21T14:55:17;21.60;44.40
46932;DHT22;32670;51.464;11.964;2024-02-21T14:57:43;21.60;44.40
46932;DHT22;32670;51.464;11.964;2024-02-21T15:00:10;21.60;44.40
46932;DHT22;32670;51.464;11.964;2024-02-21T15:02:36;21.60;44.40
46932;DHT22;32670;51.464;11.964;2024-02-21T15:05:02;21.70;44.40
46932;DHT22;32670;51.464;11.964;2024-02-21T15:07:29;21.60;44.40
46932;DHT22;32670;51.464;11.964;2024-02-21T15:09:54;21.60;44.40
46932;DHT22;32670;51.464;11.964;2024-02-21T15:12:19;21.60;45.00
46932;DHT22;32670;51.464;11.964;2024-02-21T15:14:45;21.70;44.40
46932;DHT22;32670;51.464;11.964;2024-02-21T15:17:11;21.60;44.30
46932;DHT22;32670;51.464;11.964;2024-02-21T15:19:38;21.70;44.40